sensor_id;sensor_type;location;lat;lon;timestamp;pressure;altitude;pressure_sealevel;temperature;humidity
26859;BME280;14429;48.346;16.338;2023-02-28T00:01:28;100818.56;;;7.70;43.17
26859;BME280;14429;48.346;16.338;2023-02-28T00:03:53;100818.16;;;7.80;47.04
26859;BME280;14429;48.346;16.338;2023-02-28T00:06:19;100816.06;;;7.22;43.80
26859;BME280;14429;48.346;16.338;2023-02-28T00:08:44;100821.06;;;7.30;49.00
26859;BME280;14429;48.346;16.338;2023-02-28T00:11:13;100815.28;;;7.42;50.74
26859;BME280;14429;48.346;16.338;2023-02-28T00:13:41;100812.97;;;8.60;50.75
26859;BME280;14429;48.346;16.338;2023-02-28T00:16:09;100806.81;;;8.97;50.02
26859;BME280;14429;48.346;16.338;2023-02-28T00:18:34;100818.00;;;9.61;48.68
26859;BME280;14429;48.346;16.338;2023-02-28T00:21:00;100814.09;;;9.68;48.29
26859;BME280;14429;48.346;16.338;2023-02-28T00:23:26;100818.69;;;9.83;47.82
26859;BME280;14429;48.346;16.338;2023-02-28T00:25:52;100820.50;;;10.00;47.39
26859;BME280;14429;48.346;16.338;2023-02-28T00:28:19;100822.16;;;10.21;46.82
26859;BME280;14429;48.346;16.338;2023-02-28T00:30:45;100825.44;;;10.26;46.77
26859;BME280;14429;48.346;16.338;2023-02-28T00:33:10;100826.09;;;10.13;46.93
26859;BME280;14429;48.346;16.338;2023-02-28T00:35:35;100826.28;;;8.80;40.16
26859;BME280;14429;48.346;16.338;2023-02-28T00:38:01;100823.38;;;8.45;41.50
26859;BME280;14429;48.346;16.338;2023-02-28T00:40:26;100820.47;;;8.51;43.80
26859;BME280;14429;48.346;16.338;2023-02-28T00:42:52;100823.47;;;8.63;44.02
26859;BME280;14429;48.346;16.338;2023-02-28T00:45:19;100821.41;;;8.50;47.07
26859;BME280;14429;48.346;16.338;2023-02-28T00:47:44;100813.25;;;9.31;48.76
26859;BME280;14429;48.346;16.338;2023-02-28T00:50:10;100815.13;;;9.84;47.74
26859;BME280;14429;48.346;16.338;2023-02-28T00:52:36;100821.50;;;10.16;47.00
26859;BME280;14429;48.346;16.338;2023-02-28T00:55:01;100818.25;;;10.28;46.54
26859;BME280;14429;48.346;16.338;2023-02-28T00:57:27;100815.41;;;10.31;46.27
26859;BME280;14429;48.346;16.338;2023-02-28T00:59:52;100814.16;;;10.38;46.40
26859;BME280;14429;48.346;16.338;2023-02-28T01:02:19;100816.50;;;10.27;46.40
26859;BME280;14429;48.346;16.338;2023-02-28T01:04:45;100814.56;;;9.96;44.58
26859;BME280;14429;48.346;16.338;2023-02-28T01:07:11;100815.13;;;9.84;46.41
26859;BME280;14429;48.346;16.338;2023-02-28T01:09:36;100813.97;;;9.89;46.24
26859;BME280;14429;48.346;16.338;2023-02-28T01:12:02;100812.09;;;10.09;46.78
26859;BME280;14429;48.346;16.338;2023-02-28T01:14:27;100805.69;;;10.30;46.36
26859;BME280;14429;48.346;16.338;2023-02-28T01:16:53;100823.81;;;10.40;46.19
26859;BME280;14429;48.346;16.338;2023-02-28T01:19:19;100815.59;;;10.45;45.87
26859;BME280;14429;48.346;16.338;2023-02-28T01:21:45;100812.66;;;9.97;39.41
26859;BME280;14429;48.346;16.338;2023-02-28T01:24:10;100813.06;;;10.25;46.04
26859;BME280;14429;48.346;16.338;2023-02-28T01:26:36;100811.72;;;10.33;46.10
26859;BME280;14429;48.346;16.338;2023-02-28T01:29:01;100810.53;;;10.39;45.91
26859;BME280;14429;48.346;16.338;2023-02-28T01:31:27;100818.44;;;9.89;46.77
26859;BME280;14429;48.346;16.338;2023-02-28T01:33:52;100814.22;;;10.20;46.41
26859;BME280;14429;48.346;16.338;2023-02-28T01:36:21;100818.88;;;10.33;46.26
26859;BME280;14429;48.346;16.338;2023-02-28T01:38:47;100817.69;;;10.38;45.81
26859;BME280;14429;48.346;16.338;2023-02-28T01:41:16;100818.16;;;10.46;45.80
26859;BME280;14429;48.346;16.338;2023-02-28T01:43:55;100815.59;;;10.45;45.66
26859;BME280;14429;48.346;16.338;2023-02-28T01:46:21;100820.91;;;10.45;45.69
26859;BME280;14429;48.346;16.338;2023-02-28T01:48:48;100817.97;;;10.50;45.65
26859;BME280;14429;48.346;16.338;2023-02-28T01:51:19;100813.72;;;10.47;45.65
26859;BME280;14429;48.346;16.338;2023-02-28T01:53:49;100815.28;;;10.50;45.69
26859;BME280;14429;48.346;16.338;2023-02-28T01:56:19;100815.28;;;10.50;45.59
26859;BME280;14429;48.346;16.338;2023-02-28T01:58:46;100809.78;;;10.53;45.48
26859;BME280;14429;48.346;16.338;2023-02-28T02:01:11;100822.19;;;10.54;45.37
26859;BME280;14429;48.346;16.338;2023-02-28T02:03:37;100809.72;;;10.55;45.32
26859;BME280;14429;48.346;16.338;2023-02-28T02:06:02;100821.25;;;10.55;45.23
26859;BME280;14429;48.346;16.338;2023-02-28T02:08:29;100818.72;;;10.52;45.33
26859;BME280;14429;48.346;16.338;2023-02-28T02:10:56;100816.16;;;10.51;45.32
26859;BME280;14429;48.346;16.338;2023-02-28T02:13:40;100812.63;;;10.50;45.31
26859;BME280;14429;48.346;16.338;2023-02-28T02:16:20;100806.34;;;10.51;45.39
26859;BME280;14429;48.346;16.338;2023-02-28T02:18:52;100812.53;;;10.52;45.44
26859;BME280;14429;48.346;16.338;2023-02-28T02:21:48;100816.28;;;10.48;45.37
26859;BME280;14429;48.346;16.338;2023-02-28T02:24:40;100819.19;;;10.44;45.43
26859;BME280;14429;48.346;16.338;2023-02-28T02:27:33;100822.59;;;10.47;45.34
26859;BME280;14429;48.346;16.338;2023-02-28T02:33:08;100825.16;;;10.49;45.35
26859;BME280;14429;48.346;16.338;2023-02-28T02:35:40;100819.97;;;10.46;45.32
26859;BME280;14429;48.346;16.338;2023-02-28T02:38:12;100819.19;;;10.44;45.49
26859;BME280;14429;48.346;16.338;2023-02-28T02:40:49;100816.53;;;10.44;45.33
26859;BME280;14429;48.346;16.338;2023-02-28T02:43:18;100824.53;;;10.44;45.25
26859;BME280;14429;48.346;16.338;2023-02-28T02:45:45;100819.91;;;10.47;45.40
26859;BME280;14429;48.346;16.338;2023-02-28T02:48:17;100821.13;;;10.23;44.34
26859;BME280;14429;48.346;16.338;2023-02-28T02:50:47;100820.34;;;10.38;45.67
26859;BME280;14429;48.346;16.338;2023-02-28T02:53:17;100822.78;;;10.26;45.46
26859;BME280;14429;48.346;16.338;2023-02-28T02:55:46;100830.25;;;9.65;45.42
26859;BME280;14429;48.346;16.338;2023-02-28T02:58:14;100822.84;;;9.90;46.33
26859;BME280;14429;48.346;16.338;2023-02-28T03:00:44;100824.50;;;9.92;45.95
26859;BME280;14429;48.346;16.338;2023-02-28T03:03:12;100826.06;;;9.96;46.25
26859;BME280;14429;48.346;16.338;2023-02-28T03:05:42;100820.44;;;9.84;46.22
26859;BME280;14429;48.346;16.338;2023-02-28T03:08:11;100827.66;;;10.00;46.18
26859;BME280;14429;48.346;16.338;2023-02-28T03:10:39;100822.59;;;10.12;45.96
26859;BME280;14429;48.346;16.338;2023-02-28T03:13:13;100816.97;;;10.18;46.00
26859;BME280;14429;48.346;16.338;2023-02-28T03:15:54;100819.97;;;10.29;45.49
26859;BME280;14429;48.346;16.338;2023-02-28T03:18:26;100816.34;;;10.30;45.74
26859;BME280;14429;48.346;16.338;2023-02-28T03:21:01;100822.31;;;10.35;45.46
26859;BME280;14429;48.346;16.338;2023-02-28T03:23:37;100812.59;;;10.34;45.08
26859;BME280;14429;48.346;16.338;2023-02-28T03:26:06;100824.19;;;10.33;45.60
26859;BME280;14429;48.346;16.338;2023-02-28T03:28:40;100833.06;;;9.98;45.45
26859;BME280;14429;48.346;16.338;2023-02-28T03:31:12;100823.88;;;10.22;45.73
26859;BME280;14429;48.346;16.338;2023-02-28T03:33:43;100815.59;;;10.28;45.60
26859;BME280;14429;48.346;16.338;2023-02-28T03:36:14;100821.69;;;10.30;45.55
26859;BME280;14429;48.346;16.338;2023-02-28T03:38:45;100818.25;;;10.28;45.52
26859;BME280;14429;48.346;16.338;2023-02-28T03:41:16;100818.69;;;9.83;44.48
26859;BME280;14429;48.346;16.338;2023-02-28T03:43:46;100816.94;;;9.47;42.14
26859;BME280;14429;48.346;16.338;2023-02-28T03:46:18;100828.81;;;9.95;46.39
26859;BME280;14429;48.346;16.338;2023-02-28T03:48:49;100830.44;;;10.15;45.76
26859;BME280;14429;48.346;16.338;2023-02-28T03:51:18;100824.16;;;10.16;45.63
26859;BME280;14429;48.346;16.338;2023-02-28T03:53:50;100818.81;;;10.16;45.80
26859;BME280;14429;48.346;16.338;2023-02-28T03:56:19;100819.63;;;10.18;45.64
26859;BME280;14429;48.346;16.338;2023-02-28T03:58:49;100820.88;;;10.11;45.79
26859;BME280;14429;48.346;16.338;2023-02-28T04:01:20;100821.75;;;9.94;44.15
26859;BME280;14429;48.346;16.338;2023-02-28T04:03:47;100825.47;;;9.35;43.76
26859;BME280;14429;48.346;16.338;2023-02-28T04:06:15;100816.69;;;9.33;44.31
26859;BME280;14429;48.346;16.338;2023-02-28T04:08:41;100819.56;;;9.29;46.24
26859;BME280;14429;48.346;16.338;2023-02-28T04:11:16;100824.34;;;9.59;46.76
26859;BME280;14429;48.346;16.338;2023-02-28T04:13:43;100821.91;;;9.91;46.47
26859;BME280;14429;48.346;16.338;2023-02-28T04:16:09;100820.59;;;9.99;46.07
26859;BME280;14429;48.346;16.338;2023-02-28T04:18:34;100829.09;;;9.89;46.00
26859;BME280;14429;48.346;16.338;2023-02-28T04:21:00;100836.44;;;10.02;46.00
26859;BME280;14429;48.346;16.338;2023-02-28T04:23:25;100832.69;;;10.06;45.84
26859;BME280;14429;48.346;16.338;2023-02-28T04:25:54;100840.31;;;10.13;45.75
26859;BME280;14429;48.346;16.338;2023-02-28T04:28:21;100830.38;;;10.17;45.61
26859;BME280;14429;48.346;16.338;2023-02-28T04:30:53;100823.25;;;10.17;45.58
26859;BME280;14429;48.346;16.338;2023-02-28T04:33:18;100820.41;;;10.20;45.76
26859;BME280;14429;48.346;16.338;2023-02-28T04:35:44;100827.63;;;10.18;45.67
26859;BME280;14429;48.346;16.338;2023-02-28T04:38:09;100828.78;;;10.13;45.70
26859;BME280;14429;48.346;16.338;2023-02-28T04:40:35;100830.53;;;10.14;45.83
26859;BME280;14429;48.346;16.338;2023-02-28T04:43:00;100832.47;;;10.10;45.84
26859;BME280;14429;48.346;16.338;2023-02-28T04:45:27;100829.66;;;10.13;45.75
26859;BME280;14429;48.346;16.338;2023-02-28T04:47:52;100837.47;;;10.16;45.60
26859;BME280;14429;48.346;16.338;2023-02-28T04:50:18;100838.41;;;10.15;45.70
26859;BME280;14429;48.346;16.338;2023-02-28T04:52:43;100830.66;;;10.11;45.72
26859;BME280;14429;48.346;16.338;2023-02-28T04:55:09;100838.75;;;10.09;45.63
26859;BME280;14429;48.346;16.338;2023-02-28T04:57:35;100843.03;;;10.12;45.62
26859;BME280;14429;48.346;16.338;2023-02-28T05:00:00;100841.31;;;10.11;45.64
26859;BME280;14429;48.346;16.338;2023-02-28T05:02:27;100843.03;;;10.12;45.71
26859;BME280;14429;48.346;16.338;2023-02-28T05:04:52;100843.91;;;10.12;45.64
26859;BME280;14429;48.346;16.338;2023-02-28T05:07:18;100839.50;;;10.11;45.45
26859;BME280;14429;48.346;16.338;2023-02-28T05:09:43;100839.38;;;10.14;45.66
26859;BME280;14429;48.346;16.338;2023-02-28T05:12:09;100838.66;;;9.93;45.58
26859;BME280;14429;48.346;16.338;2023-02-28T05:14:35;100836.59;;;9.99;45.44
26859;BME280;14429;48.346;16.338;2023-02-28T05:17:01;100834.84;;;9.80;43.10
26859;BME280;14429;48.346;16.338;2023-02-28T05:19:28;100833.06;;;9.98;45.90
26859;BME280;14429;48.346;16.338;2023-02-28T05:21:54;100829.31;;;10.02;45.94
26859;BME280;14429;48.346;16.338;2023-02-28T05:24:20;100824.91;;;10.01;45.68
26859;BME280;14429;48.346;16.338;2023-02-28T05:26:45;100828.38;;;10.03;45.91
26859;BME280;14429;48.346;16.338;2023-02-28T05:29:11;100828.50;;;10.00;45.75
26859;BME280;14429;48.346;16.338;2023-02-28T05:31:36;100829.31;;;10.02;45.80
26859;BME280;14429;48.346;16.338;2023-02-28T05:34:02;100832.75;;;10.04;45.74
26859;BME280;14429;48.346;16.338;2023-02-28T05:36:29;100844.34;;;10.03;45.76
26859;BME280;14429;48.346;16.338;2023-02-28T05:38:54;100844.34;;;10.03;45.70
26859;BME280;14429;48.346;16.338;2023-02-28T05:41:20;100847.81;;;10.05;45.60
26859;BME280;14429;48.346;16.338;2023-02-28T05:43:46;100848.09;;;9.99;46.05
26859;BME280;14429;48.346;16.338;2023-02-28T05:46:12;100856.09;;;9.99;45.87
26859;BME280;14429;48.346;16.338;2023-02-28T05:48:39;100857.59;;;10.05;45.56
26859;BME280;14429;48.346;16.338;2023-02-28T05:51:07;100868.56;;;9.99;45.69
26859;BME280;14429;48.346;16.338;2023-02-28T05:53:34;100854.94;;;10.05;45.69
26859;BME280;14429;48.346;16.338;2023-02-28T05:56:00;100861.16;;;10.05;45.63
26859;BME280;14429;48.346;16.338;2023-02-28T05:58:26;100872.72;;;10.04;45.80
26859;BME280;14429;48.346;16.338;2023-02-28T06:00:52;100860.25;;;10.05;45.69
26859;BME280;14429;48.346;16.338;2023-02-28T06:03:17;100867.53;;;10.01;45.73
26859;BME280;14429;48.346;16.338;2023-02-28T06:05:43;100866.13;;;9.95;45.34
26859;BME280;14429;48.346;16.338;2023-02-28T06:08:08;100874.09;;;9.95;45.65
26859;BME280;14429;48.346;16.338;2023-02-28T06:10:35;100869.56;;;9.96;45.88
26859;BME280;14429;48.346;16.338;2023-02-28T06:13:01;100883.50;;;9.83;45.18
26859;BME280;14429;48.346;16.338;2023-02-28T06:15:26;100875.50;;;9.65;45.69
26859;BME280;14429;48.346;16.338;2023-02-28T06:17:52;100876.72;;;9.58;45.97
26859;BME280;14429;48.346;16.338;2023-02-28T06:20:17;100880.00;;;9.45;46.23
26859;BME280;14429;48.346;16.338;2023-02-28T06:22:43;100865.38;;;9.73;46.35
26859;BME280;14429;48.346;16.338;2023-02-28T06:25:09;100877.47;;;9.80;46.10
26859;BME280;14429;48.346;16.338;2023-02-28T06:27:36;100872.78;;;8.70;40.82
26859;BME280;14429;48.346;16.338;2023-02-28T06:30:02;100875.94;;;8.79;43.65
26859;BME280;14429;48.346;16.338;2023-02-28T06:32:28;100881.06;;;8.84;47.15
26859;BME280;14429;48.346;16.338;2023-02-28T06:34:54;100884.03;;;8.57;44.71
26859;BME280;14429;48.346;16.338;2023-02-28T06:37:19;100886.16;;;8.88;47.78
26859;BME280;14429;48.346;16.338;2023-02-28T06:39:45;100892.97;;;8.33;47.20
26859;BME280;14429;48.346;16.338;2023-02-28T06:42:10;100896.16;;;8.62;47.78
26859;BME280;14429;48.346;16.338;2023-02-28T06:44:38;100900.06;;;7.89;46.02
26859;BME280;14429;48.346;16.338;2023-02-28T06:47:06;100896.44;;;7.91;47.49
26859;BME280;14429;48.346;16.338;2023-02-28T06:49:33;100897.88;;;8.43;47.49
26859;BME280;14429;48.346;16.338;2023-02-28T06:51:59;100902.66;;;8.76;48.61
26859;BME280;14429;48.346;16.338;2023-02-28T06:54:25;100900.53;;;9.04;48.00
26859;BME280;14429;48.346;16.338;2023-02-28T06:56:50;100901.34;;;9.06;46.28
26859;BME280;14429;48.346;16.338;2023-02-28T06:59:16;100897.00;;;9.23;47.35
26859;BME280;14429;48.346;16.338;2023-02-28T07:01:43;100903.94;;;9.45;46.85
26859;BME280;14429;48.346;16.338;2023-02-28T07:04:08;100900.03;;;9.53;46.92
26859;BME280;14429;48.346;16.338;2023-02-28T07:06:34;100903.75;;;9.49;46.62
26859;BME280;14429;48.346;16.338;2023-02-28T07:08:59;100909.34;;;9.43;46.42
26859;BME280;14429;48.346;16.338;2023-02-28T07:11:27;100907.72;;;9.59;46.43
26859;BME280;14429;48.346;16.338;2023-02-28T07:13:53;100907.84;;;9.76;46.08
26859;BME280;14429;48.346;16.338;2023-02-28T07:16:18;100901.69;;;9.74;46.10
26859;BME280;14429;48.346;16.338;2023-02-28T07:18:45;100907.53;;;9.82;46.16
26859;BME280;14429;48.346;16.338;2023-02-28T07:21:11;100907.53;;;9.82;46.06
26859;BME280;14429;48.346;16.338;2023-02-28T07:23:37;100910.72;;;9.90;45.79
26859;BME280;14429;48.346;16.338;2023-02-28T07:26:02;100909.56;;;9.77;45.04
26859;BME280;14429;48.346;16.338;2023-02-28T07:28:28;100921.59;;;9.47;46.15
26859;BME280;14429;48.346;16.338;2023-02-28T07:30:53;100920.00;;;9.43;45.99
26859;BME280;14429;48.346;16.338;2023-02-28T07:33:19;100917.72;;;9.54;46.40
26859;BME280;14429;48.346;16.338;2023-02-28T07:35:46;100918.78;;;9.31;46.23
26859;BME280;14429;48.346;16.338;2023-02-28T07:38:11;100917.00;;;9.51;46.21
26859;BME280;14429;48.346;16.338;2023-02-28T07:40:36;100927.09;;;9.63;46.22
26859;BME280;14429;48.346;16.338;2023-02-28T07:43:03;100929.66;;;9.64;44.44
26859;BME280;14429;48.346;16.338;2023-02-28T07:45:29;100928.75;;;9.45;45.90
26859;BME280;14429;48.346;16.338;2023-02-28T07:47:55;100937.69;;;9.44;46.08
26859;BME280;14429;48.346;16.338;2023-02-28T07:50:21;100929.69;;;8.86;45.46
26859;BME280;14429;48.346;16.338;2023-02-28T07:52:48;100927.91;;;9.45;46.48
26859;BME280;14429;48.346;16.338;2023-02-28T07:55:14;100935.72;;;9.68;46.01
26859;BME280;14429;48.346;16.338;2023-02-28T07:57:40;100933.38;;;9.80;46.06
26859;BME280;14429;48.346;16.338;2023-02-28T08:00:09;100934.47;;;9.76;44.90
26859;BME280;14429;48.346;16.338;2023-02-28T08:02:35;100930.84;;;9.77;45.83
26859;BME280;14429;48.346;16.338;2023-02-28T08:05:01;100925.13;;;9.86;45.74
26859;BME280;14429;48.346;16.338;2023-02-28T08:07:26;100929.13;;;9.76;46.40
26859;BME280;14429;48.346;16.338;2023-02-28T08:09:53;100935.84;;;9.07;41.49
26859;BME280;14429;48.346;16.338;2023-02-28T08:12:19;100934.44;;;8.58;45.61
26859;BME280;14429;48.346;16.338;2023-02-28T08:14:44;100932.84;;;8.54;44.82
26859;BME280;14429;48.346;16.338;2023-02-28T08:17:10;100942.44;;;8.78;47.13
26859;BME280;14429;48.346;16.338;2023-02-28T08:19:36;100942.59;;;8.33;43.06
26859;BME280;14429;48.346;16.338;2023-02-28T08:22:01;100946.03;;;8.13;42.39
26859;BME280;14429;48.346;16.338;2023-02-28T08:24:27;100948.41;;;7.76;43.90
26859;BME280;14429;48.346;16.338;2023-02-28T08:26:54;100954.50;;;7.07;44.37
26859;BME280;14429;48.346;16.338;2023-02-28T08:29:19;100960.38;;;6.67;45.33
26859;BME280;14429;48.346;16.338;2023-02-28T08:31:44;100957.31;;;6.51;48.15
26859;BME280;14429;48.346;16.338;2023-02-28T08:34:12;100958.00;;;7.07;47.07
26859;BME280;14429;48.346;16.338;2023-02-28T08:36:38;100961.75;;;6.51;47.82
26859;BME280;14429;48.346;16.338;2023-02-28T08:39:04;100957.53;;;6.97;50.59
26859;BME280;14429;48.346;16.338;2023-02-28T08:41:30;100958.38;;;7.23;50.22
26859;BME280;14429;48.346;16.338;2023-02-28T08:44:00;100962.69;;;6.75;45.78
26859;BME280;14429;48.346;16.338;2023-02-28T08:46:26;100963.47;;;7.03;46.78
26859;BME280;14429;48.346;16.338;2023-02-28T08:48:52;100967.50;;;7.14;47.49
26859;BME280;14429;48.346;16.338;2023-02-28T08:51:18;100967.44;;;6.39;46.30
26859;BME280;14429;48.346;16.338;2023-02-28T08:53:43;100966.19;;;6.50;47.06
26859;BME280;14429;48.346;16.338;2023-02-28T08:56:11;100962.59;;;6.78;47.86
26859;BME280;14429;48.346;16.338;2023-02-28T08:58:37;100965.34;;;7.25;48.12
26859;BME280;14429;48.346;16.338;2023-02-28T09:01:09;100971.84;;;7.17;48.81
26859;BME280;14429;48.346;16.338;2023-02-28T09:03:35;100968.16;;;7.21;47.39
26859;BME280;14429;48.346;16.338;2023-02-28T09:06:01;100968.25;;;7.18;46.97
26859;BME280;14429;48.346;16.338;2023-02-28T09:08:29;100973.25;;;7.26;47.16
26859;BME280;14429;48.346;16.338;2023-02-28T09:10:54;100958.00;;;7.78;47.79
26859;BME280;14429;48.346;16.338;2023-02-28T09:13:20;100977.47;;;7.32;46.22
26859;BME280;14429;48.346;16.338;2023-02-28T09:15:46;100980.97;;;7.32;46.55
26859;BME280;14429;48.346;16.338;2023-02-28T09:18:13;100973.78;;;7.60;46.57
26859;BME280;14429;48.346;16.338;2023-02-28T09:20:39;100979.16;;;7.34;47.83
26859;BME280;14429;48.346;16.338;2023-02-28T09:23:05;100980.38;;;7.25;47.25
26859;BME280;14429;48.346;16.338;2023-02-28T09:25:30;100974.38;;;7.90;49.13
26859;BME280;14429;48.346;16.338;2023-02-28T09:27:55;100973.63;;;7.87;47.67
26859;BME280;14429;48.346;16.338;2023-02-28T09:30:21;100972.84;;;7.61;46.83
26859;BME280;14429;48.346;16.338;2023-02-28T09:32:46;100968.81;;;8.19;48.22
26859;BME280;14429;48.346;16.338;2023-02-28T09:35:13;100966.16;;;8.19;46.30
26859;BME280;14429;48.346;16.338;2023-02-28T09:37:39;100974.94;;;7.76;45.54
26859;BME280;14429;48.346;16.338;2023-02-28T10:05:56;100976.53;;;7.33;46.99
26859;BME280;14429;48.346;16.338;2023-02-28T10:08:26;100959.44;;;8.10;47.88
26859;BME280;14429;48.346;16.338;2023-02-28T10:10:55;100966.72;;;8.04;46.04
26859;BME280;14429;48.346;16.338;2023-02-28T10:13:25;100957.91;;;8.05;48.42
26859;BME280;14429;48.346;16.338;2023-02-28T10:15:55;100962.59;;;7.75;48.82
26859;BME280;14429;48.346;16.338;2023-02-28T10:18:25;100965.84;;;7.82;45.99
26859;BME280;14429;48.346;16.338;2023-02-28T10:20:54;100972.38;;;7.50;46.44
26859;BME280;14429;48.346;16.338;2023-02-28T10:23:22;100970.31;;;7.58;46.56
26859;BME280;14429;48.346;16.338;2023-02-28T10:25:55;100961.56;;;7.56;47.70
26859;BME280;14429;48.346;16.338;2023-02-28T10:28:24;100966.63;;;7.84;49.47
26859;BME280;14429;48.346;16.338;2023-02-28T10:30:52;100956.94;;;7.83;46.32
26859;BME280;14429;48.346;16.338;2023-02-28T10:33:22;100955.72;;;7.92;47.57
26859;BME280;14429;48.346;16.338;2023-02-28T10:35:48;100948.41;;;7.76;47.44
26859;BME280;14429;48.346;16.338;2023-02-28T10:38:19;100945.56;;;7.80;48.20
26859;BME280;14429;48.346;16.338;2023-02-28T10:40:44;100956.34;;;7.53;47.68
26859;BME280;14429;48.346;16.338;2023-02-28T10:43:19;100948.28;;;7.56;49.03
26859;BME280;14429;48.346;16.338;2023-02-28T10:45:53;100947.56;;;7.74;47.76
26859;BME280;14429;48.346;16.338;2023-02-28T10:48:30;100949.63;;;7.43;46.59
26859;BME280;14429;48.346;16.338;2023-02-28T10:50:57;100945.00;;;7.48;47.58
26859;BME280;14429;48.346;16.338;2023-02-28T10:53:30;100935.19;;;7.27;47.29
26859;BME280;14429;48.346;16.338;2023-02-28T10:55:58;100940.34;;;7.08;48.51
26859;BME280;14429;48.346;16.338;2023-02-28T10:58:26;100935.13;;;7.29;48.57
26859;BME280;14429;48.346;16.338;2023-02-28T11:00:52;100937.16;;;7.23;48.26
26859;BME280;14429;48.346;16.338;2023-02-28T11:03:25;100937.06;;;7.48;47.39
26859;BME280;14429;48.346;16.338;2023-02-28T11:05:54;100926.22;;;7.54;48.12
26859;BME280;14429;48.346;16.338;2023-02-28T11:08:20;100929.59;;;7.11;46.84
26859;BME280;14429;48.346;16.338;2023-02-28T11:10:48;100916.72;;;7.94;49.66
26859;BME280;14429;48.346;16.338;2023-02-28T11:13:20;100917.91;;;7.85;45.81
26859;BME280;14429;48.346;16.338;2023-02-28T11:15:51;100916.03;;;8.33;49.30
26859;BME280;14429;48.346;16.338;2023-02-28T11:18:23;100916.41;;;8.24;46.79
26859;BME280;14429;48.346;16.338;2023-02-28T11:20:50;100912.81;;;8.46;48.44
26859;BME280;14429;48.346;16.338;2023-02-28T11:23:18;100902.50;;;8.38;47.79
26859;BME280;14429;48.346;16.338;2023-02-28T11:25:49;100908.19;;;7.63;47.02
26859;BME280;14429;48.346;16.338;2023-02-28T11:28:25;100899.09;;;8.14;46.38
26859;BME280;14429;48.346;16.338;2023-02-28T11:31:14;100900.56;;;7.54;47.12
26859;BME280;14429;48.346;16.338;2023-02-28T11:33:41;100897.72;;;7.59;47.42
26859;BME280;14429;48.346;16.338;2023-02-28T11:36:11;100897.97;;;7.53;46.96
26859;BME280;14429;48.346;16.338;2023-02-28T11:38:38;100884.81;;;7.73;47.12
26859;BME280;14429;48.346;16.338;2023-02-28T11:41:15;100882.72;;;7.80;47.97
26859;BME280;14429;48.346;16.338;2023-02-28T11:43:55;100879.50;;;7.73;49.17
26859;BME280;14429;48.346;16.338;2023-02-28T11:46:32;100872.59;;;7.69;47.63
26859;BME280;14429;48.346;16.338;2023-02-28T11:49:12;100875.06;;;7.73;47.01
26859;BME280;14429;48.346;16.338;2023-02-28T11:51:47;100873.50;;;7.23;46.51
26859;BME280;14429;48.346;16.338;2023-02-28T11:54:28;100881.03;;;7.57;49.52
26859;BME280;14429;48.346;16.338;2023-02-28T11:57:02;100873.97;;;7.79;49.23
26859;BME280;14429;48.346;16.338;2023-02-28T11:59:51;100870.31;;;7.60;48.48
26859;BME280;14429;48.346;16.338;2023-02-28T12:02:25;100878.47;;;7.54;48.69
26859;BME280;14429;48.346;16.338;2023-02-28T12:05:01;100869.84;;;7.49;47.58
26859;BME280;14429;48.346;16.338;2023-02-28T12:07:32;100862.44;;;7.57;48.77
26859;BME280;14429;48.346;16.338;2023-02-28T12:10:09;100864.75;;;7.43;46.94
26859;BME280;14429;48.346;16.338;2023-02-28T12:12:48;100867.38;;;7.21;49.99
26859;BME280;14429;48.346;16.338;2023-02-28T12:15:28;100857.53;;;7.69;47.63
26859;BME280;14429;48.346;16.338;2023-02-28T12:18:10;100858.59;;;7.43;47.67
26859;BME280;14429;48.346;16.338;2023-02-28T12:20:44;100854.38;;;7.60;49.56
26859;BME280;14429;48.346;16.338;2023-02-28T12:23:24;100853.06;;;7.70;47.14
26859;BME280;14429;48.346;16.338;2023-02-28T12:25:58;100847.06;;;7.87;46.79
26859;BME280;14429;48.346;16.338;2023-02-28T12:28:30;100845.34;;;8.07;46.89
26859;BME280;14429;48.346;16.338;2023-02-28T12:31:01;100831.78;;;8.15;47.61
26859;BME280;14429;48.346;16.338;2023-02-28T12:33:33;100834.31;;;8.18;46.18
26859;BME280;14429;48.346;16.338;2023-02-28T12:36:04;100832.63;;;8.15;47.47
26859;BME280;14429;48.346;16.338;2023-02-28T12:38:34;100836.50;;;8.08;45.33
26859;BME280;14429;48.346;16.338;2023-02-28T12:41:03;100836.19;;;8.16;45.08
26859;BME280;14429;48.346;16.338;2023-02-28T12:43:33;100840.00;;;8.09;46.82
26859;BME280;14429;48.346;16.338;2023-02-28T12:46:02;100837.38;;;8.29;47.43
26859;BME280;14429;48.346;16.338;2023-02-28T12:48:37;100822.66;;;7.99;45.58
26859;BME280;14429;48.346;16.338;2023-02-28T12:51:05;100839.53;;;7.98;46.60
26859;BME280;14429;48.346;16.338;2023-02-28T12:53:38;100831.38;;;8.03;45.34
26859;BME280;14429;48.346;16.338;2023-02-28T12:56:14;100836.44;;;7.87;45.69
26859;BME280;14429;48.346;16.338;2023-02-28T12:58:47;100836.56;;;7.84;44.42
26859;BME280;14429;48.346;16.338;2023-02-28T13:01:36;100830.94;;;7.92;45.04
26859;BME280;14429;48.346;16.338;2023-02-28T13:04:40;100831.34;;;7.81;46.19
26859;BME280;14429;48.346;16.338;2023-02-28T13:10:00;100825.19;;;7.81;46.70
26859;BME280;14429;48.346;16.338;2023-02-28T13:12:27;100816.56;;;7.97;45.34
26859;BME280;14429;48.346;16.338;2023-02-28T13:15:04;100826.88;;;7.83;44.45
26859;BME280;14429;48.346;16.338;2023-02-28T13:17:30;100814.38;;;7.64;45.30
26859;BME280;14429;48.346;16.338;2023-02-28T13:19:57;100817.84;;;7.44;45.46
26859;BME280;14429;48.346;16.338;2023-02-28T13:22:38;100813.34;;;7.89;46.19
26859;BME280;14429;48.346;16.338;2023-02-28T13:31:31;100815.19;;;7.87;45.09
26859;BME280;14429;48.346;16.338;2023-02-28T13:34:14;100815.81;;;7.73;45.92